createdAt,value
2018-05-13T00:00:18.290Z,13.57
2018-05-13T00:02:50.513Z,13.50
2018-05-13T00:05:22.490Z,12.00
2018-05-13T00:07:54.642Z,13.27
2018-05-13T00:10:26.551Z,11.13
2018-05-13T00:12:58.453Z,10.93
2018-05-13T00:15:31.190Z,11.00
2018-05-13T00:18:03.096Z,11.83
2018-05-13T00:20:36.097Z,9.93
2018-05-13T00:23:07.994Z,10.03
2018-05-13T00:25:39.877Z,9.30
2018-05-13T00:28:11.753Z,8.57
2018-05-13T00:30:44.553Z,5.97
2018-05-13T00:33:17.221Z,6.40
2018-05-13T00:35:50.218Z,6.73
2018-05-13T00:38:22.386Z,5.83
2018-05-13T00:40:54.266Z,8.57
2018-05-13T00:43:26.410Z,5.57
2018-05-13T00:45:58.577Z,8.23
2018-05-13T00:48:30.466Z,8.23
2018-05-13T00:51:02.343Z,5.53
2018-05-13T00:53:34.301Z,6.57
2018-05-13T00:56:06.176Z,7.80
2018-05-13T00:58:38.125Z,6.00
2018-05-13T01:01:10.349Z,5.43
2018-05-13T01:03:42.250Z,5.53
2018-05-13T01:06:14.123Z,6.23
2018-05-13T01:08:46.068Z,6.67
2018-05-13T01:11:18.200Z,5.17
2018-05-13T01:13:50.362Z,8.83
2018-05-13T01:16:22.230Z,5.87
2018-05-13T01:18:54.389Z,6.23
2018-05-13T01:21:26.274Z,7.13
2018-05-13T01:23:58.157Z,7.93
2018-05-13T01:26:30.818Z,6.53
2018-05-13T01:29:02.713Z,5.33
2018-05-13T01:31:34.607Z,5.77
2018-05-13T01:34:07.273Z,7.10
2018-05-13T01:36:39.923Z,5.77
2018-05-13T01:39:11.833Z,8.33
2018-05-13T01:41:43.722Z,6.43
2018-05-13T01:44:15.609Z,6.97
2018-05-13T01:46:47.561Z,6.20
2018-05-13T01:49:19.519Z,8.03
2018-05-13T01:51:51.396Z,9.17
2018-05-13T01:54:23.345Z,6.03
2018-05-13T01:56:55.321Z,6.80
2018-05-13T01:59:27.267Z,6.57
2018-05-13T02:01:59.244Z,8.27
2018-05-13T02:04:31.247Z,7.80
2018-05-13T02:07:03.130Z,6.40
2018-05-13T02:09:35.017Z,6.80
2018-05-13T02:12:06.983Z,7.17
2018-05-13T02:14:38.873Z,7.50
2018-05-13T02:17:11.773Z,7.27
2018-05-13T02:19:43.696Z,7.13
2018-05-13T02:22:17.186Z,8.63
2018-05-13T02:24:49.069Z,6.73
2018-05-13T02:27:21.713Z,7.87
2018-05-13T02:29:53.686Z,7.70
2018-05-13T02:32:25.565Z,9.30
2018-05-13T02:34:57.763Z,7.30
2018-05-13T02:37:29.650Z,9.00
2018-05-13T02:40:01.550Z,8.97
2018-05-13T02:42:33.503Z,7.50
2018-05-13T02:45:05.450Z,9.63
2018-05-13T02:47:37.329Z,8.17
2018-05-13T02:50:10.090Z,8.30
2018-05-13T02:52:42.047Z,7.20
2018-05-13T02:55:14.171Z,8.07
2018-05-13T02:57:46.072Z,6.43
2018-05-13T03:00:18.363Z,7.93
2018-05-13T03:02:50.233Z,5.83
2018-05-13T03:05:22.179Z,6.10
2018-05-13T03:07:54.064Z,5.10
2018-05-13T03:10:26.726Z,5.30
2018-05-13T03:12:58.661Z,4.33
2018-05-13T03:15:30.575Z,4.93
2018-05-13T03:18:03.317Z,6.13
2018-05-13T03:20:35.232Z,5.90
2018-05-13T03:23:07.105Z,8.37
2018-05-13T03:25:39.013Z,10.27
2018-05-13T03:28:10.886Z,8.20
2018-05-13T03:30:43.889Z,9.73
2018-05-13T03:33:16.136Z,5.67
2018-05-13T03:35:48.325Z,8.33
2018-05-13T03:38:20.209Z,8.17
2018-05-13T03:40:52.114Z,8.20
2018-05-13T03:43:24.324Z,6.67
2018-05-13T03:45:56.214Z,8.40
2018-05-13T03:48:28.193Z,8.17
2018-05-13T03:51:00.101Z,7.50
2018-05-13T03:53:31.978Z,6.50
2018-05-13T03:56:03.961Z,6.87
2018-05-13T03:58:35.909Z,11.17
2018-05-13T04:01:08.154Z,9.07
2018-05-13T04:03:40.021Z,9.90
2018-05-13T04:06:12.176Z,7.63
2018-05-13T04:08:55.933Z,9.03
2018-05-13T04:14:44.853Z,7.53
2018-05-13T04:17:16.742Z,8.33
2018-05-13T04:19:49.385Z,12.30
2018-05-13T04:22:21.598Z,11.60
2018-05-13T04:24:53.469Z,11.97
2018-05-13T04:27:25.368Z,9.60
2018-05-13T04:29:57.245Z,11.63
2018-05-13T04:32:29.445Z,7.63
2018-05-13T04:35:01.318Z,8.70
2018-05-13T04:37:33.193Z,8.03
2018-05-13T04:40:05.077Z,7.13
2018-05-13T04:42:36.958Z,8.47
2018-05-13T04:45:09.155Z,9.37
2018-05-13T04:47:41.093Z,6.40
2018-05-13T04:50:14.716Z,8.97
2018-05-13T04:52:47.377Z,8.23
2018-05-13T04:55:20.019Z,7.80
2018-05-13T04:57:51.910Z,6.40
2018-05-13T05:00:24.550Z,8.67
2018-05-13T05:02:56.454Z,8.10
2018-05-13T05:05:29.089Z,9.73
2018-05-13T05:08:00.990Z,7.70
2018-05-13T05:10:33.182Z,7.00
2018-05-13T05:13:05.101Z,7.00
2018-05-13T05:15:36.981Z,7.70
2018-05-13T05:18:09.657Z,8.27
2018-05-13T05:20:42.561Z,8.20
2018-05-13T05:23:14.456Z,7.93
2018-05-13T05:25:46.336Z,10.80
2018-05-13T05:28:18.241Z,8.43
2018-05-13T05:30:50.121Z,13.10
2018-05-13T05:33:22.271Z,8.07
2018-05-13T05:35:54.154Z,7.23
2018-05-13T05:38:26.295Z,7.43
2018-05-13T05:40:58.179Z,7.27
2018-05-13T05:43:30.066Z,7.07
2018-05-13T05:46:01.937Z,7.17
2018-05-13T05:48:33.950Z,8.37
2018-05-13T05:51:05.826Z,9.50
2018-05-13T05:53:37.731Z,7.57
2018-05-13T05:56:09.925Z,6.83
2018-05-13T05:58:41.828Z,7.90
2018-05-13T06:01:13.699Z,6.30
2018-05-13T06:03:45.829Z,12.23
2018-05-13T06:06:17.694Z,6.57
2018-05-13T06:08:49.591Z,7.57
2018-05-13T06:11:21.481Z,9.17
2018-05-13T06:13:54.133Z,9.40
2018-05-13T06:16:26.338Z,8.63
2018-05-13T06:18:58.242Z,7.12
2018-05-13T06:21:30.125Z,9.63
2018-05-13T06:24:02.249Z,8.65
2018-05-13T06:26:34.394Z,11.12
2018-05-13T06:29:06.290Z,8.32
2018-05-13T06:31:38.158Z,8.75
2018-05-13T06:34:10.051Z,7.55
2018-05-13T06:36:42.694Z,13.43
2018-05-13T06:39:14.597Z,13.13
2018-05-13T06:41:47.234Z,13.02
2018-05-13T06:44:19.125Z,14.50
2018-05-13T06:46:51.030Z,16.40
2018-05-13T06:49:22.972Z,14.57
2018-05-13T06:51:55.862Z,12.70
2018-05-13T06:54:27.758Z,14.50
2018-05-13T06:56:59.637Z,13.93
2018-05-13T06:59:31.565Z,14.83
2018-05-13T07:02:03.442Z,15.63
2018-05-13T07:04:35.347Z,15.17
2018-05-13T07:07:07.998Z,23.27
2018-05-13T07:09:40.012Z,19.57
2018-05-13T07:12:11.905Z,18.47
2018-05-13T07:14:43.814Z,18.37
2018-05-13T07:17:16.457Z,20.53
2018-05-13T07:19:48.377Z,22.73
2018-05-13T07:22:20.269Z,16.67
2018-05-13T07:24:52.250Z,21.67
2018-05-13T07:27:24.125Z,19.97
2018-05-13T07:29:56.805Z,23.00
2018-05-13T07:32:29.446Z,23.87
2018-05-13T07:35:01.352Z,26.90
2018-05-13T07:37:33.997Z,23.47
2018-05-13T07:40:05.905Z,26.20
2018-05-13T07:42:37.782Z,20.37
2018-05-13T07:45:09.695Z,21.62
2018-05-13T07:47:42.350Z,24.10
2018-05-13T07:50:14.277Z,26.83
2018-05-13T07:52:46.193Z,26.80
2018-05-13T07:55:18.094Z,25.83
2018-05-13T07:57:50.017Z,26.00
2018-05-13T08:00:21.890Z,25.77
2018-05-13T08:02:54.549Z,27.40
2018-05-13T08:05:26.749Z,26.58
2018-05-13T08:07:58.626Z,26.43
2018-05-13T08:10:30.531Z,32.80
2018-05-13T08:13:02.415Z,31.10
2018-05-13T08:15:35.093Z,35.90
2018-05-13T08:18:07.752Z,30.83
2018-05-13T08:20:39.662Z,30.17
2018-05-13T08:23:11.549Z,35.60
2018-05-13T08:25:44.231Z,31.60
2018-05-13T08:28:16.114Z,35.60
2018-05-13T08:30:48.007Z,40.27
2018-05-13T08:33:20.645Z,36.20
2018-05-13T08:35:52.650Z,35.37
2018-05-13T08:38:25.293Z,34.13
2018-05-13T08:40:57.242Z,34.03
2018-05-13T08:43:29.359Z,34.57
2018-05-13T08:46:01.345Z,33.90
2018-05-13T08:48:33.501Z,25.90
2018-05-13T08:51:05.393Z,33.73
2018-05-13T08:53:37.293Z,32.77
2018-05-13T08:56:09.957Z,34.87
2018-05-13T08:58:41.829Z,34.27
2018-05-13T09:01:14.500Z,33.67
2018-05-13T09:03:47.156Z,32.50
2018-05-13T09:06:19.057Z,37.37
2018-05-13T09:08:50.933Z,33.00
2018-05-13T09:11:23.059Z,37.63
2018-05-13T09:13:54.942Z,32.57
2018-05-13T09:16:27.613Z,35.13
2018-05-13T09:19:00.259Z,38.63
2018-05-13T09:21:32.159Z,32.23
2018-05-13T09:24:04.793Z,37.53
2018-05-13T09:26:36.776Z,35.80
2018-05-13T09:29:08.870Z,36.60
2018-05-13T09:31:41.033Z,36.97
2018-05-13T09:34:12.909Z,39.27
2018-05-13T09:36:44.819Z,37.23
2018-05-13T09:39:16.689Z,38.60
2018-05-13T09:41:48.602Z,41.20
2018-05-13T09:44:20.483Z,39.83
2018-05-13T09:46:53.423Z,45.07
2018-05-13T09:49:25.298Z,41.97
2018-05-13T09:51:57.207Z,46.70
2018-05-13T09:54:29.409Z,44.40
2018-05-13T09:57:01.322Z,47.90
2018-05-13T09:59:33.197Z,45.77
2018-05-13T10:02:05.401Z,44.73
2018-05-13T10:04:37.566Z,45.90
2018-05-13T10:07:09.468Z,46.97
2018-05-13T10:09:41.591Z,44.03
2018-05-13T10:12:13.501Z,51.63
2018-05-13T10:14:46.186Z,47.43
2018-05-13T10:17:18.397Z,47.90
2018-05-13T10:19:50.486Z,40.83
2018-05-13T10:22:22.380Z,49.97
2018-05-13T10:24:54.331Z,53.17
2018-05-13T10:27:26.295Z,52.47
2018-05-13T10:29:58.169Z,56.43
2018-05-13T10:32:30.074Z,58.07
2018-05-13T10:35:01.946Z,57.37
2018-05-13T10:37:33.925Z,50.17
2018-05-13T10:40:05.826Z,55.93
2018-05-13T10:42:38.497Z,54.80
2018-05-13T10:45:11.162Z,58.13
2018-05-13T10:47:43.073Z,61.47
2018-05-13T10:50:14.961Z,64.30
2018-05-13T10:52:46.888Z,59.33
2018-05-13T10:55:19.057Z,56.83
2018-05-13T10:57:51.017Z,57.40
2018-05-13T11:00:22.826Z,56.27
2018-05-13T11:02:54.726Z,53.13
2018-05-13T11:05:27.369Z,55.23
2018-05-13T11:07:59.270Z,53.67
2018-05-13T11:10:31.913Z,54.20
2018-05-13T11:13:04.130Z,55.03
2018-05-13T11:15:36.001Z,59.77
2018-05-13T11:18:07.898Z,58.83
2018-05-13T11:20:39.812Z,62.27
2018-05-13T11:23:12.441Z,61.67
2018-05-13T11:25:44.321Z,54.77
2018-05-13T11:28:16.976Z,54.60
2018-05-13T11:30:48.855Z,61.33
2018-05-13T11:33:20.761Z,58.40
2018-05-13T11:35:52.639Z,62.33
2018-05-13T11:38:24.598Z,60.77
2018-05-13T11:40:56.465Z,55.83
2018-05-13T11:43:28.356Z,58.80
2018-05-13T11:46:00.229Z,60.97
2018-05-13T11:48:32.905Z,57.27
2018-05-13T11:51:05.548Z,66.30
2018-05-13T11:53:37.468Z,63.73
2018-05-13T11:56:09.345Z,56.10
2018-05-13T11:58:41.278Z,58.43
2018-05-13T12:01:13.162Z,56.70
2018-05-13T12:03:45.051Z,64.50
2018-05-13T12:06:16.942Z,56.63
2018-05-13T12:08:48.858Z,67.03
2018-05-13T12:11:20.749Z,59.80
2018-05-13T12:13:52.659Z,59.70
2018-05-13T12:16:24.526Z,60.90
2018-05-13T12:18:56.408Z,61.17
2018-05-13T12:21:28.296Z,59.57
2018-05-13T12:24:00.207Z,56.70
2018-05-13T12:26:32.086Z,54.10
2018-05-13T12:29:04.002Z,57.97
2018-05-13T12:31:35.912Z,57.37
2018-05-13T12:34:07.787Z,59.27
2018-05-13T12:36:39.658Z,55.37
2018-05-13T12:39:11.565Z,54.07
2018-05-13T12:41:43.565Z,56.53
2018-05-13T12:44:15.452Z,54.50
2018-05-13T12:46:48.102Z,55.87
2018-05-13T12:49:20.317Z,53.07
2018-05-13T12:51:53.333Z,54.87
2018-05-13T12:54:25.245Z,57.30
2018-05-13T12:56:57.874Z,50.57
2018-05-13T12:59:30.022Z,50.37
2018-05-13T13:02:01.898Z,48.53
2018-05-13T13:04:33.803Z,55.00
2018-05-13T13:07:05.669Z,52.47
2018-05-13T13:09:38.570Z,50.70
2018-05-13T13:12:10.450Z,49.80
2018-05-13T13:14:42.357Z,51.40
2018-05-13T13:17:14.453Z,48.33
2018-05-13T13:19:46.359Z,45.77
2018-05-13T13:22:18.249Z,46.00
2018-05-13T13:24:50.161Z,48.90
2018-05-13T13:27:22.076Z,51.20
2018-05-13T13:29:54.757Z,47.27
2018-05-13T13:32:27.398Z,44.87
2018-05-13T13:34:59.624Z,47.97
2018-05-13T13:37:31.502Z,48.23
2018-05-13T13:40:03.389Z,43.43
2018-05-13T13:42:35.275Z,41.77
2018-05-13T13:45:07.942Z,41.47
2018-05-13T13:47:40.048Z,38.93
2018-05-13T13:50:11.945Z,47.53
2018-05-13T13:52:43.826Z,46.97
2018-05-13T13:55:16.573Z,40.03
2018-05-13T13:57:48.446Z,39.10
2018-05-13T14:00:20.380Z,42.50
2018-05-13T14:02:52.241Z,44.23
2018-05-13T14:05:24.395Z,41.20
2018-05-13T14:07:56.270Z,47.80
2018-05-13T14:10:28.192Z,48.80
2018-05-13T14:13:00.178Z,49.00
2018-05-13T14:15:32.073Z,46.57
2018-05-13T14:18:03.965Z,47.90
2018-05-13T14:20:35.934Z,50.13
2018-05-13T14:23:07.737Z,53.33
2018-05-13T14:25:39.654Z,50.43
2018-05-13T14:28:11.529Z,49.27
2018-05-13T14:30:44.178Z,48.10
2018-05-13T14:33:16.154Z,47.27
2018-05-13T14:35:48.351Z,43.40
2018-05-13T14:38:23.048Z,40.50
2018-05-13T14:40:55.141Z,41.03
2018-05-13T14:43:26.838Z,40.73
2018-05-13T14:45:58.756Z,43.13
2018-05-13T14:48:31.432Z,39.47
2018-05-13T14:51:04.117Z,40.70
2018-05-13T14:53:36.001Z,39.27
2018-05-13T14:56:07.917Z,40.90
2018-05-13T14:58:39.782Z,48.03
2018-05-13T15:01:12.442Z,46.07
2018-05-13T15:03:44.314Z,48.33
2018-05-13T15:06:17.326Z,43.20
2018-05-13T15:08:49.492Z,47.97
2018-05-13T15:11:21.399Z,47.30
2018-05-13T15:13:53.272Z,47.60
2018-05-13T15:16:25.478Z,48.70
2018-05-13T15:18:57.355Z,50.17
2018-05-13T15:21:29.281Z,54.13
2018-05-13T15:24:01.916Z,50.43
2018-05-13T15:26:33.809Z,49.97
2018-05-13T15:29:07.239Z,49.77
2018-05-13T15:31:39.106Z,55.43
2018-05-13T15:34:11.257Z,57.93
2018-05-13T15:36:43.158Z,56.47
2018-05-13T15:39:15.033Z,62.40
2018-05-13T15:41:46.959Z,60.03
2018-05-13T15:44:18.836Z,58.07
2018-05-13T15:46:50.738Z,60.03
2018-05-13T15:49:23.426Z,56.33
2018-05-13T15:51:56.093Z,61.77
2018-05-13T15:54:28.740Z,59.10
2018-05-13T15:57:00.634Z,53.27
2018-05-13T15:59:34.038Z,53.10
2018-05-13T16:02:06.701Z,56.13
2018-05-13T16:04:38.589Z,57.83
2018-05-13T16:07:10.486Z,55.37
2018-05-13T16:09:42.620Z,53.60
2018-05-13T16:12:14.839Z,51.93
2018-05-13T16:14:46.948Z,51.23
2018-05-13T16:17:19.114Z,56.03
2018-05-13T16:19:51.014Z,54.33
2018-05-13T16:22:22.931Z,56.50
2018-05-13T16:24:55.565Z,56.60
2018-05-13T16:27:27.483Z,58.13
2018-05-13T16:29:59.413Z,58.60
2018-05-13T16:32:31.502Z,54.63
2018-05-13T16:35:03.381Z,55.07
2018-05-13T16:37:35.531Z,54.80
2018-05-13T16:40:07.406Z,58.00
2018-05-13T16:42:39.347Z,54.80
2018-05-13T16:45:11.985Z,55.70
2018-05-13T16:47:43.882Z,55.80
2018-05-13T16:50:15.774Z,51.93
2018-05-13T16:52:47.877Z,55.10
2018-05-13T16:55:19.761Z,53.03
2018-05-13T16:57:52.439Z,52.10
2018-05-13T17:00:25.142Z,57.97
2018-05-13T17:02:57.299Z,54.00
2018-05-13T17:05:29.173Z,50.80
2018-05-13T17:08:01.073Z,54.03
2018-05-13T17:10:33.184Z,57.03
2018-05-13T17:13:05.099Z,53.53
2018-05-13T17:15:36.972Z,52.27
2018-05-13T17:18:09.066Z,53.00
2018-05-13T17:20:40.990Z,54.37
2018-05-13T17:23:12.893Z,52.47
2018-05-13T17:25:44.788Z,57.60
2018-05-13T17:28:16.701Z,56.40
2018-05-13T17:30:49.338Z,60.87
2018-05-13T17:33:21.237Z,56.77
2018-05-13T17:35:53.873Z,61.93
2018-05-13T17:38:25.774Z,55.63
2018-05-13T17:40:58.416Z,58.20
2018-05-13T17:43:30.302Z,59.33
2018-05-13T17:46:02.169Z,58.23
2018-05-13T17:48:34.834Z,56.53
2018-05-13T17:51:06.713Z,58.50
2018-05-13T17:53:39.447Z,55.73
2018-05-13T17:56:12.121Z,54.83
2018-05-13T17:58:44.106Z,53.10
2018-05-13T18:01:15.982Z,54.00
2018-05-13T18:03:47.894Z,49.57
2018-05-13T18:06:20.034Z,51.57
2018-05-13T18:08:51.959Z,56.83
2018-05-13T18:11:23.838Z,55.27
2018-05-13T18:13:56.500Z,51.87
2018-05-13T18:16:28.370Z,53.70
2018-05-13T18:19:01.050Z,60.53
2018-05-13T18:21:33.791Z,56.33
2018-05-13T18:24:05.918Z,54.57
2018-05-13T18:26:37.797Z,55.30
2018-05-13T18:29:09.815Z,56.67
2018-05-13T18:31:41.697Z,55.10
2018-05-13T18:34:14.366Z,60.00
2018-05-13T18:36:47.012Z,58.30
2018-05-13T18:39:18.940Z,61.07
2018-05-13T18:41:51.546Z,61.33
2018-05-13T18:44:23.451Z,63.33
2018-05-13T18:46:56.341Z,63.97
2018-05-13T18:49:28.234Z,67.40
2018-05-13T18:52:00.108Z,69.23
2018-05-13T18:54:32.029Z,68.37
2018-05-13T18:57:03.907Z,70.10
2018-05-13T18:59:35.823Z,70.13
2018-05-13T19:02:08.474Z,73.87
2018-05-13T19:04:40.380Z,82.13
2018-05-13T19:07:13.020Z,84.37
2018-05-13T19:09:44.913Z,80.17
2018-05-13T19:12:17.584Z,79.33
2018-05-13T19:14:49.479Z,76.87
2018-05-13T19:17:21.354Z,72.37
2018-05-13T19:19:53.258Z,75.33
2018-05-13T19:22:25.468Z,75.13
2018-05-13T19:24:57.357Z,76.63
2018-05-13T19:27:29.249Z,76.90
2018-05-13T19:30:01.945Z,80.03
2018-05-13T19:32:34.569Z,80.17
2018-05-13T19:35:06.794Z,73.70
2018-05-13T19:37:38.673Z,88.13
2018-05-13T19:40:10.562Z,78.30
2018-05-13T19:42:42.442Z,79.33
2018-05-13T19:45:14.358Z,78.47
2018-05-13T19:47:46.502Z,74.00
2018-05-13T19:50:18.665Z,75.20
2018-05-13T19:52:50.564Z,81.20
2018-05-13T19:55:22.458Z,77.90
2018-05-13T19:57:54.655Z,71.50
2018-05-13T20:00:26.573Z,78.43
2018-05-13T20:02:58.537Z,65.43
2018-05-13T20:05:31.131Z,78.03
2018-05-13T20:08:03.011Z,65.33
2018-05-13T20:10:35.694Z,64.47
2018-05-13T20:13:07.582Z,75.50
2018-05-13T20:15:39.485Z,73.83
2018-05-13T20:18:11.407Z,70.30
2018-05-13T20:20:43.321Z,73.07
2018-05-13T20:23:24.067Z,64.90
2018-05-13T20:25:56.662Z,72.97
2018-05-13T20:28:29.566Z,79.63
